sensor_id;sensor_type;location;lat;lon;timestamp;pressure;altitude;pressure_sealevel;temperature;humidity
9905;BME280;4991;43.566;27.820;2022-10-17T00:01:21;100233.06;;;8.39;100.00
9905;BME280;4991;43.566;27.820;2022-10-17T00:03:47;100232.91;;;8.51;100.00
9905;BME280;4991;43.566;27.820;2022-10-17T00:06:14;100237.97;;;8.69;100.00
9905;BME280;4991;43.566;27.820;2022-10-17T00:08:42;100246.19;;;8.74;100.00
9905;BME280;4991;43.566;27.820;2022-10-17T00:11:28;100245.97;;;8.75;100.00
9905;BME280;4991;43.566;27.820;2022-10-17T00:13:55;100246.50;;;8.77;100.00
9905;BME280;4991;43.566;27.820;2022-10-17T00:16:34;100243.09;;;8.87;100.00
9905;BME280;4991;43.566;27.820;2022-10-17T00:19:05;100245.28;;;8.90;100.00
9905;BME280;4991;43.566;27.820;2022-10-17T00:21:31;100240.47;;;8.97;100.00
9905;BME280;4991;43.566;27.820;2022-10-17T00:23:58;100237.44;;;8.93;100.00
9905;BME280;4991;43.566;27.820;2022-10-17T00:26:23;100234.50;;;9.00;100.00
9905;BME280;4991;43.566;27.820;2022-10-17T00:28:51;100235.03;;;8.97;100.00
9905;BME280;4991;43.566;27.820;2022-10-17T00:31:19;100225.75;;;8.93;100.00
9905;BME280;4991;43.566;27.820;2022-10-17T00:33:45;100231.84;;;8.78;100.00
9905;BME280;4991;43.566;27.820;2022-10-17T00:36:16;100230.28;;;8.87;100.00
9905;BME280;4991;43.566;27.820;2022-10-17T00:38:44;100241.38;;;8.81;100.00
9905;BME280;4991;43.566;27.820;2022-10-17T00:41:13;100239.22;;;8.83;100.00
9905;BME280;4991;43.566;27.820;2022-10-17T00:46:52;100239.38;;;8.71;100.00
9905;BME280;4991;43.566;27.820;2022-10-17T00:49:18;100242.00;;;8.61;100.00
9905;BME280;4991;43.566;27.820;2022-10-17T00:51:56;100245.59;;;8.67;100.00
9905;BME280;4991;43.566;27.820;2022-10-17T00:54:26;100242.31;;;8.65;100.00
9905;BME280;4991;43.566;27.820;2022-10-17T00:56:53;100236.66;;;8.71;100.00
9905;BME280;4991;43.566;27.820;2022-10-17T00:59:20;100240.75;;;8.74;100.00
9905;BME280;4991;43.566;27.820;2022-10-17T01:02:08;100253.31;;;8.80;100.00
9905;BME280;4991;43.566;27.820;2022-10-17T01:04:36;100247.28;;;8.73;100.00
9905;BME280;4991;43.566;27.820;2022-10-17T01:07:02;100251.97;;;8.82;100.00
9905;BME280;4991;43.566;27.820;2022-10-17T01:09:28;100251.97;;;8.82;100.00
9905;BME280;4991;43.566;27.820;2022-10-17T01:30:54;100236.03;;;8.91;100.00
9905;BME280;4991;43.566;27.820;2022-10-17T01:38:53;100234.19;;;8.96;100.00
9905;BME280;4991;43.566;27.820;2022-10-17T01:41:38;100236.34;;;8.94;100.00
9905;BME280;4991;43.566;27.820;2022-10-17T01:44:12;100239.41;;;9.03;100.00
9905;BME280;4991;43.566;27.820;2022-10-17T01:46:40;100242.09;;;8.98;100.00
9905;BME280;4991;43.566;27.820;2022-10-17T01:49:09;100240.84;;;8.84;100.00
9905;BME280;4991;43.566;27.820;2022-10-17T01:52:05;100238.91;;;8.79;100.00
9905;BME280;4991;43.566;27.820;2022-10-17T01:57:10;100251.56;;;8.69;100.00
9905;BME280;4991;43.566;27.820;2022-10-17T01:59:40;100250.56;;;8.75;100.00
9905;BME280;4991;43.566;27.820;2022-10-17T02:02:08;100248.00;;;8.63;100.00
9905;BME280;4991;43.566;27.820;2022-10-17T02:04:35;100255.81;;;8.60;100.00
9905;BME280;4991;43.566;27.820;2022-10-17T02:07:12;100254.94;;;8.54;100.00
9905;BME280;4991;43.566;27.820;2022-10-17T02:09:38;100263.03;;;8.49;100.00
9905;BME280;4991;43.566;27.820;2022-10-17T02:19:56;100279.94;;;8.56;100.00
9905;BME280;4991;43.566;27.820;2022-10-17T02:25:50;100278.28;;;8.50;100.00
9905;BME280;4991;43.566;27.820;2022-10-17T02:31:00;100284.16;;;8.69;100.00
9905;BME280;4991;43.566;27.820;2022-10-17T02:33:34;100282.97;;;8.60;100.00
9905;BME280;4991;43.566;27.820;2022-10-17T02:36:06;100288.09;;;8.56;100.00
9905;BME280;4991;43.566;27.820;2022-10-17T02:38:34;100288.09;;;8.56;100.00
9905;BME280;4991;43.566;27.820;2022-10-17T02:41:03;100287.78;;;8.53;100.00
9905;BME280;4991;43.566;27.820;2022-10-17T02:43:30;100295.16;;;8.57;100.00
9905;BME280;4991;43.566;27.820;2022-10-17T02:45:56;100293.03;;;8.59;100.00
9905;BME280;4991;43.566;27.820;2022-10-17T02:48:58;100291.66;;;8.57;100.00
9905;BME280;4991;43.566;27.820;2022-10-17T02:51:54;100303.03;;;8.54;100.00
9905;BME280;4991;43.566;27.820;2022-10-17T02:54:36;100294.69;;;8.60;100.00
9905;BME280;4991;43.566;27.820;2022-10-17T02:57:19;100298.97;;;8.56;100.00
9905;BME280;4991;43.566;27.820;2022-10-17T02:59:47;100296.81;;;8.58;100.00
9905;BME280;4991;43.566;27.820;2022-10-17T03:02:13;100289.00;;;8.62;100.00
9905;BME280;4991;43.566;27.820;2022-10-17T03:04:45;100296.94;;;8.68;100.00
9905;BME280;4991;43.566;27.820;2022-10-17T03:07:11;100290.03;;;8.61;100.00
9905;BME280;4991;43.566;27.820;2022-10-17T03:09:37;100305.22;;;8.57;100.00
9905;BME280;4991;43.566;27.820;2022-10-17T03:12:03;100308.19;;;8.55;100.00
9905;BME280;4991;43.566;27.820;2022-10-17T03:14:29;100307.47;;;8.65;100.00
9905;BME280;4991;43.566;27.820;2022-10-17T03:16:54;100311.25;;;8.64;100.00
9905;BME280;4991;43.566;27.820;2022-10-17T03:19:20;100307.78;;;8.68;100.00
9905;BME280;4991;43.566;27.820;2022-10-17T03:21:45;100313.69;;;8.60;100.00
9905;BME280;4991;43.566;27.820;2022-10-17T03:24:11;100323.91;;;8.53;100.00
9905;BME280;4991;43.566;27.820;2022-10-17T03:26:37;100318.34;;;8.43;100.00
9905;BME280;4991;43.566;27.820;2022-10-17T03:29:02;100325.03;;;8.36;100.00
9905;BME280;4991;43.566;27.820;2022-10-17T03:31:28;100323.16;;;8.20;100.00
9905;BME280;4991;43.566;27.820;2022-10-17T03:33:54;100327.41;;;8.11;100.00
9905;BME280;4991;43.566;27.820;2022-10-17T03:36:20;100325.84;;;7.98;100.00
9905;BME280;4991;43.566;27.820;2022-10-17T03:38:45;100328.63;;;8.03;100.00
9905;BME280;4991;43.566;27.820;2022-10-17T03:41:11;100331.13;;;7.88;100.00
9905;BME280;4991;43.566;27.820;2022-10-17T03:43:37;100331.06;;;7.83;100.00
9905;BME280;4991;43.566;27.820;2022-10-17T03:46:05;100334.19;;;7.75;100.00
9905;BME280;4991;43.566;27.820;2022-10-17T03:48:31;100332.31;;;7.75;100.00
9905;BME280;4991;43.566;27.820;2022-10-17T03:51:02;100328.25;;;7.78;100.00
9905;BME280;4991;43.566;27.820;2022-10-17T03:53:29;100344.88;;;7.81;100.00
9905;BME280;4991;43.566;27.820;2022-10-17T03:55:55;100342.72;;;7.83;100.00
9905;BME280;4991;43.566;27.820;2022-10-17T03:58:21;100340.59;;;7.85;100.00
9905;BME280;4991;43.566;27.820;2022-10-17T04:00:47;100341.56;;;7.79;100.00
9905;BME280;4991;43.566;27.820;2022-10-17T04:03:12;100333.75;;;7.83;100.00
9905;BME280;4991;43.566;27.820;2022-10-17T04:05:38;100341.31;;;7.81;100.00
9905;BME280;4991;43.566;27.820;2022-10-17T04:08:04;100327.75;;;7.81;100.00
9905;BME280;4991;43.566;27.820;2022-10-17T04:10:29;100337.31;;;7.83;100.00
9905;BME280;4991;43.566;27.820;2022-10-17T04:12:55;100335.03;;;7.75;100.00
9905;BME280;4991;43.566;27.820;2022-10-17T04:15:21;100342.31;;;7.75;100.00
9905;BME280;4991;43.566;27.820;2022-10-17T04:17:46;100341.41;;;7.69;100.00
9905;BME280;4991;43.566;27.820;2022-10-17T04:20:12;100351.78;;;7.72;100.00
9905;BME280;4991;43.566;27.820;2022-10-17T04:22:39;100336.91;;;7.75;100.00
9905;BME280;4991;43.566;27.820;2022-10-17T04:25:05;100340.53;;;7.80;100.00
9905;BME280;4991;43.566;27.820;2022-10-17T04:27:31;100342.31;;;7.75;100.00
9905;BME280;4991;43.566;27.820;2022-10-17T04:29:56;100343.22;;;7.80;100.00
9905;BME280;4991;43.566;27.820;2022-10-17T04:32:22;100340.59;;;7.85;100.00
9905;BME280;4991;43.566;27.820;2022-10-17T04:34:48;100344.59;;;7.83;100.00
9905;BME280;4991;43.566;27.820;2022-10-17T04:37:14;100346.81;;;7.86;100.00
9905;BME280;4991;43.566;27.820;2022-10-17T04:39:40;100346.34;;;7.89;100.00
9905;BME280;4991;43.566;27.820;2022-10-17T04:42:05;100339.50;;;7.86;100.00
9905;BME280;4991;43.566;27.820;2022-10-17T04:44:31;100342.66;;;7.78;100.00
9905;BME280;4991;43.566;27.820;2022-10-17T04:46:58;100340.78;;;7.79;100.00
9905;BME280;4991;43.566;27.820;2022-10-17T04:49:23;100345.28;;;7.73;100.00
9905;BME280;4991;43.566;27.820;2022-10-17T04:51:49;100359.44;;;7.75;100.00
9905;BME280;4991;43.566;27.820;2022-10-17T04:54:15;100355.06;;;7.74;100.00
9905;BME280;4991;43.566;27.820;2022-10-17T04:56:40;100358.00;;;7.73;100.00
9905;BME280;4991;43.566;27.820;2022-10-17T04:59:06;100361.56;;;7.73;100.00
9905;BME280;4991;43.566;27.820;2022-10-17T05:01:31;100362.81;;;7.66;100.00
9905;BME280;4991;43.566;27.820;2022-10-17T05:03:57;100360.47;;;7.74;100.00
9905;BME280;4991;43.566;27.820;2022-10-17T05:06:24;100366.47;;;7.76;100.00
9905;BME280;4991;43.566;27.820;2022-10-17T05:08:50;100369.53;;;7.80;100.00
9905;BME280;4991;43.566;27.820;2022-10-17T05:11:18;100360.63;;;7.84;100.00
9905;BME280;4991;43.566;27.820;2022-10-17T05:13:49;100362.13;;;7.92;100.00
9905;BME280;4991;43.566;27.820;2022-10-17T05:16:15;100369.09;;;7.88;100.00
9905;BME280;4991;43.566;27.820;2022-10-17T05:18:41;100365.50;;;7.99;100.00
9905;BME280;4991;43.566;27.820;2022-10-17T05:21:07;100377.81;;;8.07;100.00
9905;BME280;4991;43.566;27.820;2022-10-17T05:23:32;100379.91;;;8.21;100.00
9905;BME280;4991;43.566;27.820;2022-10-17T05:25:58;100384.47;;;8.32;100.00
9905;BME280;4991;43.566;27.820;2022-10-17T05:28:24;100383.41;;;8.55;100.00
9905;BME280;4991;43.566;27.820;2022-10-17T05:30:49;100394.38;;;8.65;100.00
9905;BME280;4991;43.566;27.820;2022-10-17T05:33:15;100388.31;;;8.79;100.00
9905;BME280;4991;43.566;27.820;2022-10-17T05:35:40;100399.63;;;8.93;100.00
9905;BME280;4991;43.566;27.820;2022-10-17T05:38:06;100401.13;;;9.05;100.00
9905;BME280;4991;43.566;27.820;2022-10-17T05:40:32;100407.50;;;9.16;100.00
9905;BME280;4991;43.566;27.820;2022-10-17T05:42:58;100402.78;;;9.33;100.00
9905;BME280;4991;43.566;27.820;2022-10-17T05:45:24;100411.38;;;9.47;100.00
9905;BME280;4991;43.566;27.820;2022-10-17T05:47:49;100415.84;;;9.63;100.00
9905;BME280;4991;43.566;27.820;2022-10-17T05:50:16;100418.94;;;9.71;100.00
9905;BME280;4991;43.566;27.820;2022-10-17T05:52:45;100420.34;;;9.79;100.00
9905;BME280;4991;43.566;27.820;2022-10-17T05:55:10;100423.97;;;9.89;100.00
9905;BME280;4991;43.566;27.820;2022-10-17T05:57:36;100426.31;;;10.07;100.00
9905;BME280;4991;43.566;27.820;2022-10-17T06:00:03;100429.09;;;10.12;100.00
9905;BME280;4991;43.566;27.820;2022-10-17T06:02:29;100432.75;;;10.28;100.00
9905;BME280;4991;43.566;27.820;2022-10-17T06:04:54;100436.91;;;10.40;100.00
9905;BME280;4991;43.566;27.820;2022-10-17T06:07:20;100434.53;;;10.49;100.00
9905;BME280;4991;43.566;27.820;2022-10-17T06:09:45;100445.13;;;10.46;100.00
9905;BME280;4991;43.566;27.820;2022-10-17T06:12:11;100441.34;;;10.57;100.00
9905;BME280;4991;43.566;27.820;2022-10-17T06:14:37;100440.06;;;10.64;100.00
9905;BME280;4991;43.566;27.820;2022-10-17T06:17:03;100445.44;;;10.54;100.00
9905;BME280;4991;43.566;27.820;2022-10-17T06:19:28;100444.81;;;10.42;100.00
9905;BME280;4991;43.566;27.820;2022-10-17T06:21:54;100458.69;;;10.40;100.00
9905;BME280;4991;43.566;27.820;2022-10-17T06:24:19;100453.03;;;10.47;100.00
9905;BME280;4991;43.566;27.820;2022-10-17T06:26:45;100457.41;;;10.53;100.00
9905;BME280;4991;43.566;27.820;2022-10-17T06:29:12;100452.47;;;10.45;100.00
9905;BME280;4991;43.566;27.820;2022-10-17T06:31:37;100462.53;;;10.39;100.00
9905;BME280;4991;43.566;27.820;2022-10-17T06:34:03;100462.06;;;10.53;100.00
9905;BME280;4991;43.566;27.820;2022-10-17T06:36:28;100464.50;;;10.54;100.00
9905;BME280;4991;43.566;27.820;2022-10-17T06:38:54;100460.13;;;10.53;100.00
9905;BME280;4991;43.566;27.820;2022-10-17T06:41:20;100464.59;;;10.64;100.00
9905;BME280;4991;43.566;27.820;2022-10-17T06:43:46;100465.94;;;10.67;100.00
9905;BME280;4991;43.566;27.820;2022-10-17T06:46:13;100466.03;;;10.82;100.00
9905;BME280;4991;43.566;27.820;2022-10-17T06:48:39;100460.34;;;10.93;100.00
9905;BME280;4991;43.566;27.820;2022-10-17T06:51:05;100457.44;;;11.10;100.00
9905;BME280;4991;43.566;27.820;2022-10-17T06:53:34;100453.88;;;11.09;100.00
9905;BME280;4991;43.566;27.820;2022-10-17T06:56:01;100460.75;;;11.17;100.00
9905;BME280;4991;43.566;27.820;2022-10-17T06:58:35;100465.41;;;11.26;100.00
9905;BME280;4991;43.566;27.820;2022-10-17T07:01:08;100462.16;;;11.39;100.00
9905;BME280;4991;43.566;27.820;2022-10-17T07:03:35;100462.19;;;11.49;100.00
9905;BME280;4991;43.566;27.820;2022-10-17T07:06:01;100467.16;;;11.67;100.00
9905;BME280;4991;43.566;27.820;2022-10-17T07:08:26;100459.00;;;11.83;100.00
9905;BME280;4991;43.566;27.820;2022-10-17T07:10:52;100460.41;;;12.00;100.00
9905;BME280;4991;43.566;27.820;2022-10-17T07:13:18;100463.13;;;12.15;100.00
9905;BME280;4991;43.566;27.820;2022-10-17T07:15:44;100476.22;;;12.43;100.00
9905;BME280;4991;43.566;27.820;2022-10-17T07:18:11;100476.47;;;12.52;100.00
9905;BME280;4991;43.566;27.820;2022-10-17T07:20:37;100475.09;;;12.59;100.00
9905;BME280;4991;43.566;27.820;2022-10-17T07:23:03;100473.97;;;12.75;100.00
9905;BME280;4991;43.566;27.820;2022-10-17T07:25:28;100470.44;;;12.75;100.00
9905;BME280;4991;43.566;27.820;2022-10-17T07:27:54;100473.16;;;12.80;100.00
9905;BME280;4991;43.566;27.820;2022-10-17T07:30:20;100461.94;;;12.81;100.00
9905;BME280;4991;43.566;27.820;2022-10-17T07:32:46;100467.63;;;13.05;100.00
9905;BME280;4991;43.566;27.820;2022-10-17T07:35:13;100457.44;;;13.21;100.00
9905;BME280;4991;43.566;27.820;2022-10-17T07:37:39;100467.78;;;13.29;100.00
9905;BME280;4991;43.566;27.820;2022-10-17T07:40:06;100456.25;;;13.37;100.00
9905;BME280;4991;43.566;27.820;2022-10-17T07:42:35;100464.72;;;13.40;100.00
9905;BME280;4991;43.566;27.820;2022-10-17T07:45:00;100459.22;;;13.45;100.00
9905;BME280;4991;43.566;27.820;2022-10-17T07:47:26;100458.91;;;13.52;100.00
9905;BME280;4991;43.566;27.820;2022-10-17T07:49:51;100461.06;;;13.55;100.00
9905;BME280;4991;43.566;27.820;2022-10-17T07:52:17;100461.81;;;13.70;100.00
9905;BME280;4991;43.566;27.820;2022-10-17T07:54:43;100458.22;;;13.75;100.00
9905;BME280;4991;43.566;27.820;2022-10-17T07:57:09;100463.63;;;13.85;100.00
9905;BME280;4991;43.566;27.820;2022-10-17T07:59:36;100456.50;;;13.89;100.00
9905;BME280;4991;43.566;27.820;2022-10-17T08:02:03;100461.69;;;13.90;100.00
9905;BME280;4991;43.566;27.820;2022-10-17T08:04:29;100470.88;;;14.04;100.00
9905;BME280;4991;43.566;27.820;2022-10-17T08:06:54;100459.03;;;14.14;100.00
9905;BME280;4991;43.566;27.820;2022-10-17T08:09:20;100463.94;;;14.17;100.00
9905;BME280;4991;43.566;27.820;2022-10-17T08:11:46;100460.31;;;14.27;100.00
9905;BME280;4991;43.566;27.820;2022-10-17T08:14:13;100458.41;;;14.27;100.00
9905;BME280;4991;43.566;27.820;2022-10-17T08:16:39;100453.41;;;14.34;100.00
9905;BME280;4991;43.566;27.820;2022-10-17T08:19:05;100451.91;;;14.47;100.00
9905;BME280;4991;43.566;27.820;2022-10-17T08:21:34;100462.97;;;14.65;100.00
9905;BME280;4991;43.566;27.820;2022-10-17T08:23:59;100448.38;;;14.70;100.00
9905;BME280;4991;43.566;27.820;2022-10-17T08:26:27;100454.81;;;14.84;100.00
9905;BME280;4991;43.566;27.820;2022-10-17T08:28:53;100462.22;;;15.07;100.00
9905;BME280;4991;43.566;27.820;2022-10-17T08:31:19;100461.28;;;15.16;100.00
9905;BME280;4991;43.566;27.820;2022-10-17T08:33:46;100463.59;;;15.28;100.00
9905;BME280;4991;43.566;27.820;2022-10-17T08:36:14;100462.16;;;15.54;100.00
9905;BME280;4991;43.566;27.820;2022-10-17T08:38:40;100448.38;;;15.78;100.00
9905;BME280;4991;43.566;27.820;2022-10-17T08:46:41;100466.47;;;15.97;100.00
9905;BME280;4991;43.566;27.820;2022-10-17T08:49:15;100466.91;;;16.23;100.00
9905;BME280;4991;43.566;27.820;2022-10-17T08:51:52;100469.78;;;16.45;100.00
9905;BME280;4991;43.566;27.820;2022-10-17T08:54:23;100469.53;;;16.46;100.00
9905;BME280;4991;43.566;27.820;2022-10-17T08:56:53;100468.84;;;16.54;100.00
9905;BME280;4991;43.566;27.820;2022-10-17T08:59:24;100462.66;;;16.76;100.00
9905;BME280;4991;43.566;27.820;2022-10-17T09:02:07;100467.47;;;17.25;100.00
9905;BME280;4991;43.566;27.820;2022-10-17T09:04:48;100470.09;;;19.20;100.00
9905;BME280;4991;43.566;27.820;2022-10-17T09:16:06;100461.25;;;21.43;100.00
9905;BME280;4991;43.566;27.820;2022-10-17T09:18:38;100469.50;;;21.23;100.00
9905;BME280;4991;43.566;27.820;2022-10-17T09:24:04;100473.34;;;22.09;100.00
9905;BME280;4991;43.566;27.820;2022-10-17T09:26:30;100475.91;;;20.60;100.00
9905;BME280;4991;43.566;27.820;2022-10-17T09:28:58;100480.81;;;20.03;100.00
9905;BME280;4991;43.566;27.820;2022-10-17T09:31:39;100468.72;;;21.72;100.00
9905;BME280;4991;43.566;27.820;2022-10-17T09:34:08;100476.50;;;22.85;100.00
9905;BME280;4991;43.566;27.820;2022-10-17T09:36:38;100468.75;;;22.46;100.00
9905;BME280;4991;43.566;27.820;2022-10-17T09:39:13;100473.13;;;21.73;100.00
9905;BME280;4991;43.566;27.820;2022-10-17T09:41:51;100468.19;;;22.73;100.00
9905;BME280;4991;43.566;27.820;2022-10-17T09:49:46;100461.13;;;21.60;100.00
9905;BME280;4991;43.566;27.820;2022-10-17T09:57:27;100465.50;;;22.44;100.00
9905;BME280;4991;43.566;27.820;2022-10-17T09:59:59;100453.91;;;23.31;99.90
9905;BME280;4991;43.566;27.820;2022-10-17T10:02:26;100464.50;;;23.65;98.39
9905;BME280;4991;43.566;27.820;2022-10-17T10:05:03;100447.53;;;24.34;92.28
9905;BME280;4991;43.566;27.820;2022-10-17T10:07:35;100458.72;;;23.70;91.08
9905;BME280;4991;43.566;27.820;2022-10-17T10:10:04;100445.16;;;24.20;92.70
9905;BME280;4991;43.566;27.820;2022-10-17T10:12:33;100452.56;;;24.44;86.28
9905;BME280;4991;43.566;27.820;2022-10-17T10:14:59;100460.31;;;24.51;84.20
9905;BME280;4991;43.566;27.820;2022-10-17T10:17:36;100451.69;;;23.37;88.60
9905;BME280;4991;43.566;27.820;2022-10-17T10:20:32;100454.13;;;24.30;86.93
9905;BME280;4991;43.566;27.820;2022-10-17T10:23:14;100452.41;;;25.27;80.92
9905;BME280;4991;43.566;27.820;2022-10-17T10:25:57;100442.72;;;26.47;73.65
9905;BME280;4991;43.566;27.820;2022-10-17T10:28:34;100453.00;;;25.20;72.94
9905;BME280;4991;43.566;27.820;2022-10-17T10:31:09;100447.78;;;25.34;73.59
9905;BME280;4991;43.566;27.820;2022-10-17T10:33:39;100446.47;;;25.13;76.16
9905;BME280;4991;43.566;27.820;2022-10-17T10:36:05;100444.91;;;25.47;72.88
9905;BME280;4991;43.566;27.820;2022-10-17T10:38:33;100436.56;;;26.19;72.17
9905;BME280;4991;43.566;27.820;2022-10-17T10:41:05;100438.88;;;27.72;64.97
9905;BME280;4991;43.566;27.820;2022-10-17T10:43:44;100441.03;;;27.82;61.66
9905;BME280;4991;43.566;27.820;2022-10-17T10:46:20;100447.38;;;27.79;62.09
9905;BME280;4991;43.566;27.820;2022-10-17T10:49:00;100439.50;;;27.32;62.54
9905;BME280;4991;43.566;27.820;2022-10-17T10:51:31;100441.72;;;27.01;60.35
9905;BME280;4991;43.566;27.820;2022-10-17T10:54:29;100430.91;;;25.62;66.72
9905;BME280;4991;43.566;27.820;2022-10-17T10:56:59;100431.94;;;24.17;73.10
9905;BME280;4991;43.566;27.820;2022-10-17T10:59:32;100426.88;;;24.07;77.30
9905;BME280;4991;43.566;27.820;2022-10-17T11:02:07;100437.72;;;24.40;76.06
9905;BME280;4991;43.566;27.820;2022-10-17T11:04:49;100423.78;;;24.99;74.95
9905;BME280;4991;43.566;27.820;2022-10-17T11:07:33;100428.16;;;26.00;71.63
9905;BME280;4991;43.566;27.820;2022-10-17T11:10:14;100422.72;;;26.87;65.42
9905;BME280;4991;43.566;27.820;2022-10-17T11:12:51;100423.28;;;26.74;63.10
9905;BME280;4991;43.566;27.820;2022-10-17T11:18:33;100412.34;;;25.89;63.40
9905;BME280;4991;43.566;27.820;2022-10-17T11:21:18;100414.25;;;23.98;71.42
9905;BME280;4991;43.566;27.820;2022-10-17T11:23:59;100418.41;;;24.04;72.80
9905;BME280;4991;43.566;27.820;2022-10-17T11:26:28;100417.28;;;24.64;71.34
9905;BME280;4991;43.566;27.820;2022-10-17T11:28:57;100416.56;;;25.44;67.64
9905;BME280;4991;43.566;27.820;2022-10-17T11:31:29;100409.06;;;26.40;64.50
9905;BME280;4991;43.566;27.820;2022-10-17T11:33:59;100408.13;;;26.97;60.59
9905;BME280;4991;43.566;27.820;2022-10-17T11:36:37;100409.50;;;26.84;59.51
9905;BME280;4991;43.566;27.820;2022-10-17T11:42:17;100405.84;;;27.29;57.99
9905;BME280;4991;43.566;27.820;2022-10-17T11:44:44;100414.97;;;27.26;57.72
9905;BME280;4991;43.566;27.820;2022-10-17T11:50:31;100406.13;;;26.98;55.99
9905;BME280;4991;43.566;27.820;2022-10-17T11:53:02;100398.63;;;25.99;57.36
9905;BME280;4991;43.566;27.820;2022-10-17T11:55:30;100405.31;;;25.76;58.05
9905;BME280;4991;43.566;27.820;2022-10-17T11:58:18;100403.41;;;25.99;58.59
9905;BME280;4991;43.566;27.820;2022-10-17T12:01:10;100400.47;;;24.60;64.14
9905;BME280;4991;43.566;27.820;2022-10-17T12:03:45;100389.22;;;25.19;64.90
9905;BME280;4991;43.566;27.820;2022-10-17T12:11:55;100397.09;;;27.30;55.68
9905;BME280;4991;43.566;27.820;2022-10-17T12:17:03;100391.44;;;28.12;52.88
9905;BME280;4991;43.566;27.820;2022-10-17T12:19:34;100395.03;;;27.05;53.29
9905;BME280;4991;43.566;27.820;2022-10-17T12:22:21;100395.94;;;26.86;57.15
9905;BME280;4991;43.566;27.820;2022-10-17T12:25:02;100398.00;;;26.89;55.88
9905;BME280;4991;43.566;27.820;2022-10-17T12:27:45;100403.09;;;27.10;55.91
9905;BME280;4991;43.566;27.820;2022-10-17T12:33:03;100400.00;;;27.15;55.43
9905;BME280;4991;43.566;27.820;2022-10-17T12:35:31;100394.97;;;27.50;54.42
9905;BME280;4991;43.566;27.820;2022-10-17T12:45:48;100405.88;;;28.18;52.51
9905;BME280;4991;43.566;27.820;2022-10-17T12:51:18;100402.13;;;28.03;52.78
9905;BME280;4991;43.566;27.820;2022-10-17T12:56:13;100399.72;;;27.46;52.37
9905;BME280;4991;43.566;27.820;2022-10-17T12:58:44;100397.19;;;27.15;53.04
9905;BME280;4991;43.566;27.820;2022-10-17T13:03:50;100402.22;;;27.80;49.16
9905;BME280;4991;43.566;27.820;2022-10-17T13:06:28;100394.75;;;28.25;48.61
9905;BME280;4991;43.566;27.820;2022-10-17T13:09:03;100392.31;;;28.56;48.68
9905;BME280;4991;43.566;27.820;2022-10-17T13:11:32;100404.63;;;27.82;50.42
9905;BME280;4991;43.566;27.820;2022-10-17T13:14:01;100400.41;;;29.08;48.27
9905;BME280;4991;43.566;27.820;2022-10-17T13:16:36;100398.44;;;28.69;48.08
9905;BME280;4991;43.566;27.820;2022-10-17T13:19:25;100402.38;;;28.61;47.95
9905;BME280;4991;43.566;27.820;2022-10-17T13:21:56;100398.78;;;26.90;50.04
9905;BME280;4991;43.566;27.820;2022-10-17T13:26:53;100397.53;;;25.85;54.80
9905;BME280;4991;43.566;27.820;2022-10-17T13:29:19;100399.47;;;24.53;59.09
9905;BME280;4991;43.566;27.820;2022-10-17T13:31:55;100398.88;;;25.06;60.92
9905;BME280;4991;43.566;27.820;2022-10-17T13:34:23;100393.41;;;24.94;60.87
9905;BME280;4991;43.566;27.820;2022-10-17T13:37:02;100407.09;;;24.83;62.88
9905;BME280;4991;43.566;27.820;2022-10-17T13:39:33;100406.72;;;23.86;66.43
9905;BME280;4991;43.566;27.820;2022-10-17T13:42:02;100406.41;;;24.15;65.70
9905;BME280;4991;43.566;27.820;2022-10-17T13:44:32;100412.88;;;23.40;69.02
9905;BME280;4991;43.566;27.820;2022-10-17T13:46:59;100401.22;;;23.74;69.57
9905;BME280;4991;43.566;27.820;2022-10-17T13:49:36;100410.03;;;24.32;67.97
9905;BME280;4991;43.566;27.820;2022-10-17T13:52:05;100403.53;;;23.72;69.72
9905;BME280;4991;43.566;27.820;2022-10-17T13:54:41;100415.81;;;23.71;71.60
9905;BME280;4991;43.566;27.820;2022-10-17T13:57:34;100413.06;;;23.23;72.22
9905;BME280;4991;43.566;27.820;2022-10-17T14:00:03;100406.81;;;23.50;69.76
9905;BME280;4991;43.566;27.820;2022-10-17T14:02:33;100412.72;;;22.88;75.46
9905;BME280;4991;43.566;27.820;2022-10-17T14:07:41;100422.13;;;23.96;73.29
9905;BME280;4991;43.566;27.820;2022-10-17T14:10:33;100413.69;;;22.92;79.39
9905;BME280;4991;43.566;27.820;2022-10-17T14:13:00;100411.47;;;22.41;82.08
9905;BME280;4991;43.566;27.820;2022-10-17T14:15:30;100412.41;;;22.13;86.37
9905;BME280;4991;43.566;27.820;2022-10-17T14:18:03;100408.25;;;22.07;91.30
9905;BME280;4991;43.566;27.820;2022-10-17T14:20:30;100413.00;;;22.51;94.18
9905;BME280;4991;43.566;27.820;2022-10-17T14:22:58;100416.59;;;22.51;97.19
9905;BME280;4991;43.566;27.820;2022-10-17T14:25:30;100409.50;;;22.09;100.00
9905;BME280;4991;43.566;27.820;2022-10-17T14:28:16;100411.38;;;21.85;100.00
9905;BME280;4991;43.566;27.820;2022-10-17T14:30:48;100423.31;;;22.18;100.00
9905;BME280;4991;43.566;27.820;2022-10-17T14:33:26;100414.50;;;22.16;100.00
9905;BME280;4991;43.566;27.820;2022-10-17T14:35:55;100423.66;;;21.54;100.00
9905;BME280;4991;43.566;27.820;2022-10-17T14:38:22;100425.13;;;20.94;100.00
9905;BME280;4991;43.566;27.820;2022-10-17T14:41:36;100435.41;;;20.30;100.00
9905;BME280;4991;43.566;27.820;2022-10-17T14:43:37;100435.09;;;19.97;100.00
9905;BME280;4991;43.566;27.820;2022-10-17T14:46:02;100438.53;;;19.77;100.00
9905;BME280;4991;43.566;27.820;2022-10-17T14:48:28;100440.25;;;19.39;100.00
9905;BME280;4991;43.566;27.820;2022-10-17T14:51:08;100441.13;;;19.09;100.00
9905;BME280;4991;43.566;27.820;2022-10-17T14:53:35;100443.56;;;18.71;100.00
9905;BME280;4991;43.566;27.820;2022-10-17T14:56:03;100446.03;;;18.51;100.00
9905;BME280;4991;43.566;27.820;2022-10-17T14:58:32;100451.09;;;18.49;100.00
9905;BME280;4991;43.566;27.820;2022-10-17T15:00:59;100446.06;;;18.07;100.00
9905;BME280;4991;43.566;27.820;2022-10-17T15:03:25;100449.38;;;17.95;100.00
9905;BME280;4991;43.566;27.820;2022-10-17T15:05:52;100454.34;;;17.71;100.00